sensor_id;sensor_type;location;lat;lon;timestamp;P1;durP1;ratioP1;P2;durP2;ratioP2
71902;SDS011;59778;50.310;18.780;2023-05-10T00:03:28;11.37;;;4.87;;
71902;SDS011;59778;50.310;18.780;2023-05-10T00:18:49;10.23;;;4.63;;
71902;SDS011;59778;50.310;18.780;2023-05-10T00:34:11;11.00;;;4.03;;
71902;SDS011;59778;50.310;18.780;2023-05-10T00:49:32;11.10;;;4.00;;
71902;SDS011;59778;50.310;18.780;2023-05-10T01:04:53;11.37;;;4.47;;
71902;SDS011;59778;50.310;18.780;2023-05-10T01:20:15;10.60;;;4.40;;
71902;SDS011;59778;50.310;18.780;2023-05-10T01:35:41;8.90;;;4.20;;
71902;SDS011;59778;50.310;18.780;2023-05-10T01:51:08;9.27;;;3.93;;
71902;SDS011;59778;50.310;18.780;2023-05-10T02:06:31;9.23;;;3.57;;
71902;SDS011;59778;50.310;18.780;2023-05-10T02:21:55;11.03;;;4.17;;
71902;SDS011;59778;50.310;18.780;2023-05-10T02:37:18;8.93;;;4.13;;
71902;SDS011;59778;50.310;18.780;2023-05-10T02:52:44;12.77;;;4.77;;
71902;SDS011;59778;50.310;18.780;2023-05-10T03:24:44;10.53;;;5.30;;
71902;SDS011;59778;50.310;18.780;2023-05-10T03:40:08;11.57;;;5.40;;
71902;SDS011;59778;50.310;18.780;2023-05-10T03:55:29;15.83;;;5.77;;
71902;SDS011;59778;50.310;18.780;2023-05-10T04:10:51;14.93;;;5.13;;
71902;SDS011;59778;50.310;18.780;2023-05-10T04:26:12;12.43;;;5.43;;
71902;SDS011;59778;50.310;18.780;2023-05-10T04:41:34;11.90;;;5.27;;
71902;SDS011;59778;50.310;18.780;2023-05-10T04:56:55;12.87;;;4.73;;
71902;SDS011;59778;50.310;18.780;2023-05-10T05:12:17;11.43;;;4.43;;
71902;SDS011;59778;50.310;18.780;2023-05-10T05:27:38;10.77;;;4.07;;
71902;SDS011;59778;50.310;18.780;2023-05-10T05:42:59;11.07;;;4.00;;
71902;SDS011;59778;50.310;18.780;2023-05-10T05:58:24;9.03;;;3.43;;
71902;SDS011;59778;50.310;18.780;2023-05-10T06:13:46;10.93;;;3.23;;
71902;SDS011;59778;50.310;18.780;2023-05-10T06:29:08;7.40;;;2.87;;
71902;SDS011;59778;50.310;18.780;2023-05-10T06:44:29;10.50;;;3.07;;
71902;SDS011;59778;50.310;18.780;2023-05-10T06:59:51;7.33;;;2.57;;
71902;SDS011;59778;50.310;18.780;2023-05-10T07:15:13;7.10;;;2.43;;
71902;SDS011;59778;50.310;18.780;2023-05-10T07:30:34;7.43;;;2.30;;
71902;SDS011;59778;50.310;18.780;2023-05-10T07:45:55;9.17;;;2.30;;
71902;SDS011;59778;50.310;18.780;2023-05-10T08:01:18;6.73;;;2.20;;
71902;SDS011;59778;50.310;18.780;2023-05-10T08:16:39;3.63;;;1.73;;
71902;SDS011;59778;50.310;18.780;2023-05-10T08:32:00;4.63;;;1.80;;
71902;SDS011;59778;50.310;18.780;2023-05-10T08:47:22;4.10;;;1.90;;
71902;SDS011;59778;50.310;18.780;2023-05-10T09:02:43;6.37;;;3.57;;
71902;SDS011;59778;50.310;18.780;2023-05-10T09:18:06;5.37;;;2.00;;
71902;SDS011;59778;50.310;18.780;2023-05-10T09:33:28;4.70;;;1.90;;
71902;SDS011;59778;50.310;18.780;2023-05-10T09:48:49;5.87;;;2.10;;
71902;SDS011;59778;50.310;18.780;2023-05-10T10:04:10;4.10;;;1.80;;
71902;SDS011;59778;50.310;18.780;2023-05-10T10:19:34;4.73;;;1.90;;
71902;SDS011;59778;50.310;18.780;2023-05-10T10:34:56;3.97;;;1.90;;
71902;SDS011;59778;50.310;18.780;2023-05-10T10:50:18;5.23;;;2.03;;
71902;SDS011;59778;50.310;18.780;2023-05-10T11:05:42;3.60;;;2.10;;
71902;SDS011;59778;50.310;18.780;2023-05-10T11:21:05;4.23;;;2.27;;
71902;SDS011;59778;50.310;18.780;2023-05-10T11:36:35;7.97;;;2.20;;
71902;SDS011;59778;50.310;18.780;2023-05-10T11:52:03;6.33;;;2.30;;
71902;SDS011;59778;50.310;18.780;2023-05-10T12:07:26;6.20;;;2.40;;
71902;SDS011;59778;50.310;18.780;2023-05-10T12:22:51;5.63;;;2.37;;
71902;SDS011;59778;50.310;18.780;2023-05-10T12:53:55;4.90;;;2.30;;
71902;SDS011;59778;50.310;18.780;2023-05-10T13:09:17;4.97;;;2.27;;
71902;SDS011;59778;50.310;18.780;2023-05-10T13:24:38;9.87;;;2.20;;
71902;SDS011;59778;50.310;18.780;2023-05-10T13:39:59;5.13;;;2.10;;
71902;SDS011;59778;50.310;18.780;2023-05-10T13:55:21;8.87;;;2.50;;
71902;SDS011;59778;50.310;18.780;2023-05-10T14:10:42;4.43;;;1.87;;
71902;SDS011;59778;50.310;18.780;2023-05-10T14:26:03;5.17;;;1.90;;
71902;SDS011;59778;50.310;18.780;2023-05-10T14:41:25;5.63;;;2.10;;
71902;SDS011;59778;50.310;18.780;2023-05-10T14:56:46;4.77;;;2.20;;
71902;SDS011;59778;50.310;18.780;2023-05-10T15:12:10;4.13;;;1.93;;
71902;SDS011;59778;50.310;18.780;2023-05-10T15:27:32;4.57;;;2.47;;
71902;SDS011;59778;50.310;18.780;2023-05-10T15:42:53;7.30;;;2.40;;
71902;SDS011;59778;50.310;18.780;2023-05-10T15:58:15;5.03;;;2.00;;
71902;SDS011;59778;50.310;18.780;2023-05-10T16:13:36;6.37;;;2.33;;
71902;SDS011;59778;50.310;18.780;2023-05-10T16:28:58;6.63;;;2.20;;
71902;SDS011;59778;50.310;18.780;2023-05-10T16:44:20;4.53;;;1.90;;
71902;SDS011;59778;50.310;18.780;2023-05-10T16:59:42;3.70;;;1.60;;
71902;SDS011;59778;50.310;18.780;2023-05-10T17:15:04;5.73;;;1.90;;
71902;SDS011;59778;50.310;18.780;2023-05-10T17:30:26;6.50;;;2.27;;
71902;SDS011;59778;50.310;18.780;2023-05-10T17:45:48;7.30;;;2.67;;
71902;SDS011;59778;50.310;18.780;2023-05-10T18:01:10;7.27;;;2.57;;
71902;SDS011;59778;50.310;18.780;2023-05-10T18:16:31;5.53;;;2.60;;
71902;SDS011;59778;50.310;18.780;2023-05-10T18:31:52;12.17;;;3.63;;
71902;SDS011;59778;50.310;18.780;2023-05-10T18:47:13;9.90;;;4.03;;
71902;SDS011;59778;50.310;18.780;2023-05-10T19:02:35;8.30;;;3.50;;
71902;SDS011;59778;50.310;18.780;2023-05-10T19:17:59;9.10;;;3.00;;
71902;SDS011;59778;50.310;18.780;2023-05-10T19:33:20;7.83;;;3.00;;
71902;SDS011;59778;50.310;18.780;2023-05-10T19:48:41;11.43;;;3.80;;
71902;SDS011;59778;50.310;18.780;2023-05-10T20:04:02;9.03;;;3.80;;
71902;SDS011;59778;50.310;18.780;2023-05-10T20:19:24;9.90;;;3.20;;
71902;SDS011;59778;50.310;18.780;2023-05-10T20:34:46;14.83;;;3.40;;
71902;SDS011;59778;50.310;18.780;2023-05-10T20:50:07;9.77;;;3.77;;
71902;SDS011;59778;50.310;18.780;2023-05-10T21:05:28;11.20;;;3.93;;
71902;SDS011;59778;50.310;18.780;2023-05-10T21:20:50;9.97;;;3.60;;
71902;SDS011;59778;50.310;18.780;2023-05-10T21:36:11;9.20;;;3.10;;
71902;SDS011;59778;50.310;18.780;2023-05-10T21:51:33;11.87;;;3.80;;
71902;SDS011;59778;50.310;18.780;2023-05-10T22:06:55;8.97;;;4.07;;
71902;SDS011;59778;50.310;18.780;2023-05-10T22:22:16;9.77;;;4.87;;
71902;SDS011;59778;50.310;18.780;2023-05-10T22:37:38;14.00;;;4.20;;
71902;SDS011;59778;50.310;18.780;2023-05-10T22:53:00;11.63;;;3.97;;
71902;SDS011;59778;50.310;18.780;2023-05-10T23:08:21;10.53;;;3.80;;
71902;SDS011;59778;50.310;18.780;2023-05-10T23:23:42;13.00;;;4.70;;
71902;SDS011;59778;50.310;18.780;2023-05-10T23:39:04;13.50;;;4.57;;
71902;SDS011;59778;50.310;18.780;2023-05-10T23:54:25;13.23;;;4.00;;
